sensor_id;sensor_type;location;lat;lon;timestamp;temperature;humidity
4673;DHT22;61885;53.560;9.940;2022-08-27T00:00:14;19.20;99.90
4673;DHT22;61885;53.560;9.940;2022-08-27T00:02:46;19.20;99.90
4673;DHT22;61885;53.560;9.940;2022-08-27T00:05:17;19.30;99.90
4673;DHT22;61885;53.560;9.940;2022-08-27T00:07:48;19.30;99.90
4673;DHT22;61885;53.560;9.940;2022-08-27T00:10:19;19.30;99.90
4673;DHT22;61885;53.560;9.940;2022-08-27T00:12:50;19.20;99.90
4673;DHT22;61885;53.560;9.940;2022-08-27T00:15:21;19.20;99.90
4673;DHT22;61885;53.560;9.940;2022-08-27T00:17:53;19.20;99.90
4673;DHT22;61885;53.560;9.940;2022-08-27T00:20:24;19.20;99.90
4673;DHT22;61885;53.560;9.940;2022-08-27T00:22:56;19.20;99.90
4673;DHT22;61885;53.560;9.940;2022-08-27T00:25:27;19.20;99.90
4673;DHT22;61885;53.560;9.940;2022-08-27T00:27:56;20.00;99.90
4673;DHT22;61885;53.560;9.940;2022-08-27T00:30:27;19.20;99.90
4673;DHT22;61885;53.560;9.940;2022-08-27T00:32:59;19.20;99.90
4673;DHT22;61885;53.560;9.940;2022-08-27T00:35:30;19.10;99.90
4673;DHT22;61885;53.560;9.940;2022-08-27T00:37:59;19.20;99.90
4673;DHT22;61885;53.560;9.940;2022-08-27T00:40:29;19.10;99.90
4673;DHT22;61885;53.560;9.940;2022-08-27T00:43:00;19.10;99.90
4673;DHT22;61885;53.560;9.940;2022-08-27T00:45:35;19.00;99.90
4673;DHT22;61885;53.560;9.940;2022-08-27T00:48:13;19.00;99.90
4673;DHT22;61885;53.560;9.940;2022-08-27T00:50:47;19.00;99.90
4673;DHT22;61885;53.560;9.940;2022-08-27T00:53:21;18.90;99.90
4673;DHT22;61885;53.560;9.940;2022-08-27T00:55:56;18.80;99.90
4673;DHT22;61885;53.560;9.940;2022-08-27T00:58:29;18.90;99.90
4673;DHT22;61885;53.560;9.940;2022-08-27T01:01:06;18.70;99.90
4673;DHT22;61885;53.560;9.940;2022-08-27T01:03:39;18.70;99.90
4673;DHT22;61885;53.560;9.940;2022-08-27T01:06:11;18.60;99.90
4673;DHT22;61885;53.560;9.940;2022-08-27T01:08:45;18.70;99.90
4673;DHT22;61885;53.560;9.940;2022-08-27T01:11:16;18.70;99.90
4673;DHT22;61885;53.560;9.940;2022-08-27T01:13:46;18.60;99.90
4673;DHT22;61885;53.560;9.940;2022-08-27T01:16:19;18.60;99.90
4673;DHT22;61885;53.560;9.940;2022-08-27T01:18:53;18.60;99.90
4673;DHT22;61885;53.560;9.940;2022-08-27T01:21:29;18.60;99.90
4673;DHT22;61885;53.560;9.940;2022-08-27T01:24:08;19.40;99.90
4673;DHT22;61885;53.560;9.940;2022-08-27T01:26:45;18.70;99.90
4673;DHT22;61885;53.560;9.940;2022-08-27T01:29:15;18.70;99.90
4673;DHT22;61885;53.560;9.940;2022-08-27T01:31:45;18.80;99.90
4673;DHT22;61885;53.560;9.940;2022-08-27T01:34:15;18.80;99.90
4673;DHT22;61885;53.560;9.940;2022-08-27T01:36:45;18.70;99.90
4673;DHT22;61885;53.560;9.940;2022-08-27T01:39:17;18.60;99.90
4673;DHT22;61885;53.560;9.940;2022-08-27T01:41:49;18.60;99.90
4673;DHT22;61885;53.560;9.940;2022-08-27T01:44:19;19.10;99.90
4673;DHT22;61885;53.560;9.940;2022-08-27T01:46:49;18.60;99.90
4673;DHT22;61885;53.560;9.940;2022-08-27T01:49:18;18.70;99.90
4673;DHT22;61885;53.560;9.940;2022-08-27T01:51:48;18.70;99.90
4673;DHT22;61885;53.560;9.940;2022-08-27T01:54:17;18.70;99.90
4673;DHT22;61885;53.560;9.940;2022-08-27T01:56:49;18.70;99.90
4673;DHT22;61885;53.560;9.940;2022-08-27T01:59:19;18.70;99.90
4673;DHT22;61885;53.560;9.940;2022-08-27T02:01:49;18.60;99.90
4673;DHT22;61885;53.560;9.940;2022-08-27T02:04:19;18.70;99.90
4673;DHT22;61885;53.560;9.940;2022-08-27T02:06:49;18.70;99.90
4673;DHT22;61885;53.560;9.940;2022-08-27T02:09:19;18.80;99.90
4673;DHT22;61885;53.560;9.940;2022-08-27T02:11:54;18.70;99.90
4673;DHT22;61885;53.560;9.940;2022-08-27T02:14:24;18.80;99.90
4673;DHT22;61885;53.560;9.940;2022-08-27T02:16:55;18.70;99.90
4673;DHT22;61885;53.560;9.940;2022-08-27T02:19:25;18.70;99.90
4673;DHT22;61885;53.560;9.940;2022-08-27T02:21:55;18.70;99.90
4673;DHT22;61885;53.560;9.940;2022-08-27T02:24:26;18.70;99.90
4673;DHT22;61885;53.560;9.940;2022-08-27T02:26:59;18.70;99.90
4673;DHT22;61885;53.560;9.940;2022-08-27T02:29:28;18.70;99.90
4673;DHT22;61885;53.560;9.940;2022-08-27T02:32:00;18.70;99.90
4673;DHT22;61885;53.560;9.940;2022-08-27T02:34:29;18.70;99.90
4673;DHT22;61885;53.560;9.940;2022-08-27T02:36:59;18.70;99.90
4673;DHT22;61885;53.560;9.940;2022-08-27T02:39:29;18.70;99.90
4673;DHT22;61885;53.560;9.940;2022-08-27T02:42:01;18.70;99.90
4673;DHT22;61885;53.560;9.940;2022-08-27T02:44:30;18.70;99.90
4673;DHT22;61885;53.560;9.940;2022-08-27T02:47:01;18.60;99.90
4673;DHT22;61885;53.560;9.940;2022-08-27T02:49:31;18.60;99.90
4673;DHT22;61885;53.560;9.940;2022-08-27T02:52:01;18.60;99.90
4673;DHT22;61885;53.560;9.940;2022-08-27T02:54:31;18.70;99.90
4673;DHT22;61885;53.560;9.940;2022-08-27T02:57:04;18.70;99.90
4673;DHT22;61885;53.560;9.940;2022-08-27T02:59:34;18.70;99.90
4673;DHT22;61885;53.560;9.940;2022-08-27T03:02:04;18.60;99.90
4673;DHT22;61885;53.560;9.940;2022-08-27T03:04:35;18.60;99.90
4673;DHT22;61885;53.560;9.940;2022-08-27T03:07:04;18.60;99.90
4673;DHT22;61885;53.560;9.940;2022-08-27T03:09:34;18.60;99.90
4673;DHT22;61885;53.560;9.940;2022-08-27T03:12:07;18.60;99.90
4673;DHT22;61885;53.560;9.940;2022-08-27T03:14:36;18.60;99.90
4673;DHT22;61885;53.560;9.940;2022-08-27T03:17:06;18.60;99.90
4673;DHT22;61885;53.560;9.940;2022-08-27T03:19:48;18.60;99.90
4673;DHT22;61885;53.560;9.940;2022-08-27T03:22:17;18.60;99.90
4673;DHT22;61885;53.560;9.940;2022-08-27T03:24:47;18.70;99.90
4673;DHT22;61885;53.560;9.940;2022-08-27T03:27:19;18.60;99.90
4673;DHT22;61885;53.560;9.940;2022-08-27T03:29:49;18.60;99.90
4673;DHT22;61885;53.560;9.940;2022-08-27T03:32:18;18.60;99.90
4673;DHT22;61885;53.560;9.940;2022-08-27T03:34:48;18.60;99.90
4673;DHT22;61885;53.560;9.940;2022-08-27T03:37:17;18.60;99.90
4673;DHT22;61885;53.560;9.940;2022-08-27T03:39:47;19.40;99.90
4673;DHT22;61885;53.560;9.940;2022-08-27T03:42:20;18.60;99.90
4673;DHT22;61885;53.560;9.940;2022-08-27T03:44:50;18.60;99.90
4673;DHT22;61885;53.560;9.940;2022-08-27T03:47:19;18.60;99.90
4673;DHT22;61885;53.560;9.940;2022-08-27T03:49:50;18.60;99.90
4673;DHT22;61885;53.560;9.940;2022-08-27T03:52:19;18.50;99.90
4673;DHT22;61885;53.560;9.940;2022-08-27T03:54:49;18.50;99.90
4673;DHT22;61885;53.560;9.940;2022-08-27T03:57:21;18.50;99.90
4673;DHT22;61885;53.560;9.940;2022-08-27T03:59:51;18.50;99.90
4673;DHT22;61885;53.560;9.940;2022-08-27T04:02:20;18.40;99.90
4673;DHT22;61885;53.560;9.940;2022-08-27T04:04:50;18.40;99.90
4673;DHT22;61885;53.560;9.940;2022-08-27T04:07:20;18.40;99.90
4673;DHT22;61885;53.560;9.940;2022-08-27T04:09:49;18.40;99.90
4673;DHT22;61885;53.560;9.940;2022-08-27T04:12:21;18.40;99.90
4673;DHT22;61885;53.560;9.940;2022-08-27T04:14:52;18.40;99.90
4673;DHT22;61885;53.560;9.940;2022-08-27T04:17:21;18.40;99.90
4673;DHT22;61885;53.560;9.940;2022-08-27T04:19:51;18.50;99.90
4673;DHT22;61885;53.560;9.940;2022-08-27T04:22:21;18.50;99.90
4673;DHT22;61885;53.560;9.940;2022-08-27T04:24:51;18.50;99.90
4673;DHT22;61885;53.560;9.940;2022-08-27T04:27:23;18.50;99.90
4673;DHT22;61885;53.560;9.940;2022-08-27T04:29:54;18.50;99.90
4673;DHT22;61885;53.560;9.940;2022-08-27T04:32:25;18.50;99.90
4673;DHT22;61885;53.560;9.940;2022-08-27T04:34:55;18.50;99.90
4673;DHT22;61885;53.560;9.940;2022-08-27T04:37:28;18.60;99.90
4673;DHT22;61885;53.560;9.940;2022-08-27T04:39:58;18.50;99.90
4673;DHT22;61885;53.560;9.940;2022-08-27T04:42:31;18.50;99.90
4673;DHT22;61885;53.560;9.940;2022-08-27T04:45:01;19.00;99.90
4673;DHT22;61885;53.560;9.940;2022-08-27T04:47:31;18.50;99.90
4673;DHT22;61885;53.560;9.940;2022-08-27T04:50:00;18.50;99.90
4673;DHT22;61885;53.560;9.940;2022-08-27T04:52:30;19.70;99.90
4673;DHT22;61885;53.560;9.940;2022-08-27T04:55:00;18.60;99.90
4673;DHT22;61885;53.560;9.940;2022-08-27T04:57:32;18.60;99.90
4673;DHT22;61885;53.560;9.940;2022-08-27T05:00:04;18.50;99.90
4673;DHT22;61885;53.560;9.940;2022-08-27T05:02:35;18.40;99.90
4673;DHT22;61885;53.560;9.940;2022-08-27T05:05:05;18.40;99.90
4673;DHT22;61885;53.560;9.940;2022-08-27T05:07:35;18.40;99.90
4673;DHT22;61885;53.560;9.940;2022-08-27T05:10:07;18.40;99.90
4673;DHT22;61885;53.560;9.940;2022-08-27T05:12:42;18.40;99.90
4673;DHT22;61885;53.560;9.940;2022-08-27T05:15:13;18.40;99.90
4673;DHT22;61885;53.560;9.940;2022-08-27T05:17:43;18.40;99.90
4673;DHT22;61885;53.560;9.940;2022-08-27T05:20:13;18.40;99.90
4673;DHT22;61885;53.560;9.940;2022-08-27T05:22:42;18.40;99.90
4673;DHT22;61885;53.560;9.940;2022-08-27T05:25:12;18.40;99.90
4673;DHT22;61885;53.560;9.940;2022-08-27T05:27:44;18.30;99.90
4673;DHT22;61885;53.560;9.940;2022-08-27T05:30:14;18.40;99.90
4673;DHT22;61885;53.560;9.940;2022-08-27T05:32:44;18.40;99.90
4673;DHT22;61885;53.560;9.940;2022-08-27T05:35:13;18.30;99.90
4673;DHT22;61885;53.560;9.940;2022-08-27T05:37:45;18.40;99.90
4673;DHT22;61885;53.560;9.940;2022-08-27T05:40:15;18.30;99.90
4673;DHT22;61885;53.560;9.940;2022-08-27T05:42:47;18.30;99.90
4673;DHT22;61885;53.560;9.940;2022-08-27T05:45:17;18.30;99.90
4673;DHT22;61885;53.560;9.940;2022-08-27T05:47:46;18.30;99.90
4673;DHT22;61885;53.560;9.940;2022-08-27T05:50:16;18.30;99.90
4673;DHT22;61885;53.560;9.940;2022-08-27T05:52:46;18.40;99.90
4673;DHT22;61885;53.560;9.940;2022-08-27T05:55:16;18.30;99.90
4673;DHT22;61885;53.560;9.940;2022-08-27T05:57:49;18.30;99.90
4673;DHT22;61885;53.560;9.940;2022-08-27T06:00:19;18.20;99.90
4673;DHT22;61885;53.560;9.940;2022-08-27T06:03:01;18.10;99.90
4673;DHT22;61885;53.560;9.940;2022-08-27T06:05:30;17.90;99.90
4673;DHT22;61885;53.560;9.940;2022-08-27T06:08:00;17.90;99.90
4673;DHT22;61885;53.560;9.940;2022-08-27T06:10:30;17.80;99.90
4673;DHT22;61885;53.560;9.940;2022-08-27T06:13:03;17.90;99.90
4673;DHT22;61885;53.560;9.940;2022-08-27T06:15:33;17.80;99.90
4673;DHT22;61885;53.560;9.940;2022-08-27T06:18:04;17.80;99.90
4673;DHT22;61885;53.560;9.940;2022-08-27T06:20:34;17.80;99.90
4673;DHT22;61885;53.560;9.940;2022-08-27T06:23:04;17.80;99.90
4673;DHT22;61885;53.560;9.940;2022-08-27T06:25:33;17.80;99.90
4673;DHT22;61885;53.560;9.940;2022-08-27T06:28:10;17.80;99.90
4673;DHT22;61885;53.560;9.940;2022-08-27T06:30:40;17.80;99.90
4673;DHT22;61885;53.560;9.940;2022-08-27T06:33:10;17.80;99.90
4673;DHT22;61885;53.560;9.940;2022-08-27T06:38:09;17.80;99.90
4673;DHT22;61885;53.560;9.940;2022-08-27T06:40:42;17.90;99.90
4673;DHT22;61885;53.560;9.940;2022-08-27T06:43:14;17.80;99.90
4673;DHT22;61885;53.560;9.940;2022-08-27T06:45:44;17.80;99.90
4673;DHT22;61885;53.560;9.940;2022-08-27T06:48:14;17.70;99.90
4673;DHT22;61885;53.560;9.940;2022-08-27T06:50:43;17.60;99.90
4673;DHT22;61885;53.560;9.940;2022-08-27T06:53:13;17.60;99.90
4673;DHT22;61885;53.560;9.940;2022-08-27T06:55:44;17.60;99.90
4673;DHT22;61885;53.560;9.940;2022-08-27T06:58:17;17.50;99.90
4673;DHT22;61885;53.560;9.940;2022-08-27T07:00:48;17.50;99.90
4673;DHT22;61885;53.560;9.940;2022-08-27T07:03:19;17.50;99.90
4673;DHT22;61885;53.560;9.940;2022-08-27T07:05:48;17.50;99.90
4673;DHT22;61885;53.560;9.940;2022-08-27T07:08:18;17.50;99.90
4673;DHT22;61885;53.560;9.940;2022-08-27T07:10:47;17.60;99.90
4673;DHT22;61885;53.560;9.940;2022-08-27T07:13:20;17.60;99.90
4673;DHT22;61885;53.560;9.940;2022-08-27T07:15:49;17.60;99.90
4673;DHT22;61885;53.560;9.940;2022-08-27T07:18:19;17.60;99.90
4673;DHT22;61885;53.560;9.940;2022-08-27T07:20:51;17.60;99.90
4673;DHT22;61885;53.560;9.940;2022-08-27T07:23:21;17.70;99.90
4673;DHT22;61885;53.560;9.940;2022-08-27T07:25:50;17.70;99.90
4673;DHT22;61885;53.560;9.940;2022-08-27T07:28:23;17.60;99.90
4673;DHT22;61885;53.560;9.940;2022-08-27T07:30:53;17.60;99.90
4673;DHT22;61885;53.560;9.940;2022-08-27T07:33:22;17.60;99.90
4673;DHT22;61885;53.560;9.940;2022-08-27T07:35:52;17.50;99.90
4673;DHT22;61885;53.560;9.940;2022-08-27T07:38:22;17.60;99.90
4673;DHT22;61885;53.560;9.940;2022-08-27T07:40:52;17.50;99.90
4673;DHT22;61885;53.560;9.940;2022-08-27T07:43:24;17.60;99.90
4673;DHT22;61885;53.560;9.940;2022-08-27T07:46:06;17.60;99.90
4673;DHT22;61885;53.560;9.940;2022-08-27T07:48:37;17.60;99.90
4673;DHT22;61885;53.560;9.940;2022-08-27T07:51:12;17.70;99.90
4673;DHT22;61885;53.560;9.940;2022-08-27T07:53:43;17.70;99.90
4673;DHT22;61885;53.560;9.940;2022-08-27T07:56:13;17.60;99.90
4673;DHT22;61885;53.560;9.940;2022-08-27T07:58:49;17.80;99.90
4673;DHT22;61885;53.560;9.940;2022-08-27T08:01:21;17.80;99.90
4673;DHT22;61885;53.560;9.940;2022-08-27T08:03:51;17.80;99.90
4673;DHT22;61885;53.560;9.940;2022-08-27T08:06:21;17.60;99.90
4673;DHT22;61885;53.560;9.940;2022-08-27T08:08:50;17.70;99.90
4673;DHT22;61885;53.560;9.940;2022-08-27T08:11:20;17.80;99.90
4673;DHT22;61885;53.560;9.940;2022-08-27T08:13:52;17.90;99.90
4673;DHT22;61885;53.560;9.940;2022-08-27T08:16:23;17.80;99.90
4673;DHT22;61885;53.560;9.940;2022-08-27T08:18:53;17.80;99.90
4673;DHT22;61885;53.560;9.940;2022-08-27T08:21:22;17.70;99.90
4673;DHT22;61885;53.560;9.940;2022-08-27T08:23:52;17.60;99.90
4673;DHT22;61885;53.560;9.940;2022-08-27T08:26:21;17.60;99.90
4673;DHT22;61885;53.560;9.940;2022-08-27T08:28:54;17.60;99.90
4673;DHT22;61885;53.560;9.940;2022-08-27T08:31:23;17.60;99.90
4673;DHT22;61885;53.560;9.940;2022-08-27T08:33:53;17.60;99.90
4673;DHT22;61885;53.560;9.940;2022-08-27T08:36:22;17.60;99.90
4673;DHT22;61885;53.560;9.940;2022-08-27T08:38:52;17.60;99.90
4673;DHT22;61885;53.560;9.940;2022-08-27T08:41:37;17.50;99.90
4673;DHT22;61885;53.560;9.940;2022-08-27T08:44:16;17.70;99.90
4673;DHT22;61885;53.560;9.940;2022-08-27T08:46:52;17.70;99.90
4673;DHT22;61885;53.560;9.940;2022-08-27T08:49:31;17.70;99.90
4673;DHT22;61885;53.560;9.940;2022-08-27T08:52:09;17.70;99.90
4673;DHT22;61885;53.560;9.940;2022-08-27T08:54:42;17.60;99.90
4673;DHT22;61885;53.560;9.940;2022-08-27T08:57:19;17.60;99.90
4673;DHT22;61885;53.560;9.940;2022-08-27T08:59:55;17.60;99.90
4673;DHT22;61885;53.560;9.940;2022-08-27T09:02:28;17.60;99.90
4673;DHT22;61885;53.560;9.940;2022-08-27T09:05:01;17.60;99.90
4673;DHT22;61885;53.560;9.940;2022-08-27T09:07:35;17.70;99.90
4673;DHT22;61885;53.560;9.940;2022-08-27T09:10:16;17.70;99.90
4673;DHT22;61885;53.560;9.940;2022-08-27T09:12:47;17.70;99.90
4673;DHT22;61885;53.560;9.940;2022-08-27T09:15:27;17.70;99.90
4673;DHT22;61885;53.560;9.940;2022-08-27T09:18:05;17.60;99.90
4673;DHT22;61885;53.560;9.940;2022-08-27T09:20:35;17.60;99.90
4673;DHT22;61885;53.560;9.940;2022-08-27T09:23:10;17.70;99.90
4673;DHT22;61885;53.560;9.940;2022-08-27T09:25:42;17.80;99.90
4673;DHT22;61885;53.560;9.940;2022-08-27T09:28:14;17.80;99.90
4673;DHT22;61885;53.560;9.940;2022-08-27T09:31:03;17.90;99.90
4673;DHT22;61885;53.560;9.940;2022-08-27T09:33:34;17.80;99.90
4673;DHT22;61885;53.560;9.940;2022-08-27T09:36:07;17.90;99.90
4673;DHT22;61885;53.560;9.940;2022-08-27T09:38:41;17.70;99.90
4673;DHT22;61885;53.560;9.940;2022-08-27T09:41:23;17.80;99.90
4673;DHT22;61885;53.560;9.940;2022-08-27T09:43:58;17.80;99.90
4673;DHT22;61885;53.560;9.940;2022-08-27T09:46:30;17.80;99.90
4673;DHT22;61885;53.560;9.940;2022-08-27T09:49:09;17.90;99.90
4673;DHT22;61885;53.560;9.940;2022-08-27T09:51:40;17.90;99.90
4673;DHT22;61885;53.560;9.940;2022-08-27T09:54:11;18.00;99.90
4673;DHT22;61885;53.560;9.940;2022-08-27T09:56:54;18.00;99.90
4673;DHT22;61885;53.560;9.940;2022-08-27T09:59:26;18.00;99.90
4673;DHT22;61885;53.560;9.940;2022-08-27T10:02:12;18.10;99.90
4673;DHT22;61885;53.560;9.940;2022-08-27T10:04:46;18.10;99.90
4673;DHT22;61885;53.560;9.940;2022-08-27T10:07:25;18.10;99.90
4673;DHT22;61885;53.560;9.940;2022-08-27T10:10:02;18.10;99.90
4673;DHT22;61885;53.560;9.940;2022-08-27T10:12:38;18.30;99.90
4673;DHT22;61885;53.560;9.940;2022-08-27T10:15:11;18.20;99.90
4673;DHT22;61885;53.560;9.940;2022-08-27T10:17:54;18.20;99.90
4673;DHT22;61885;53.560;9.940;2022-08-27T10:20:33;18.20;99.90
4673;DHT22;61885;53.560;9.940;2022-08-27T10:23:18;18.20;99.90
4673;DHT22;61885;53.560;9.940;2022-08-27T10:25:54;18.30;99.90
4673;DHT22;61885;53.560;9.940;2022-08-27T10:28:34;18.50;99.90
4673;DHT22;61885;53.560;9.940;2022-08-27T10:31:17;18.60;99.90
4673;DHT22;61885;53.560;9.940;2022-08-27T10:34:00;18.60;99.90
4673;DHT22;61885;53.560;9.940;2022-08-27T10:36:41;18.50;99.90
4673;DHT22;61885;53.560;9.940;2022-08-27T10:39:21;18.50;99.90
4673;DHT22;61885;53.560;9.940;2022-08-27T10:42:12;18.50;99.90
4673;DHT22;61885;53.560;9.940;2022-08-27T10:44:58;18.60;99.90
4673;DHT22;61885;53.560;9.940;2022-08-27T10:47:51;18.60;99.90
4673;DHT22;61885;53.560;9.940;2022-08-27T10:50:33;18.60;99.90
4673;DHT22;61885;53.560;9.940;2022-08-27T10:53:08;18.70;99.90
4673;DHT22;61885;53.560;9.940;2022-08-27T10:55:41;18.60;99.90
4673;DHT22;61885;53.560;9.940;2022-08-27T10:58:25;18.80;99.90
4673;DHT22;61885;53.560;9.940;2022-08-27T11:01:02;18.80;99.90
4673;DHT22;61885;53.560;9.940;2022-08-27T11:03:46;18.80;99.90
4673;DHT22;61885;53.560;9.940;2022-08-27T11:06:24;18.90;99.90
4673;DHT22;61885;53.560;9.940;2022-08-27T11:08:58;19.10;99.90
4673;DHT22;61885;53.560;9.940;2022-08-27T11:11:33;19.10;99.90
4673;DHT22;61885;53.560;9.940;2022-08-27T11:14:08;19.10;99.90
4673;DHT22;61885;53.560;9.940;2022-08-27T11:16:47;19.10;99.90
4673;DHT22;61885;53.560;9.940;2022-08-27T11:19:21;19.00;99.90
4673;DHT22;61885;53.560;9.940;2022-08-27T11:22:01;19.00;99.90
4673;DHT22;61885;53.560;9.940;2022-08-27T11:24:38;19.00;99.90
4673;DHT22;61885;53.560;9.940;2022-08-27T11:27:09;18.90;99.90
4673;DHT22;61885;53.560;9.940;2022-08-27T11:29:43;18.90;99.90
4673;DHT22;61885;53.560;9.940;2022-08-27T11:32:21;19.00;99.90
4673;DHT22;61885;53.560;9.940;2022-08-27T11:34:58;19.10;99.90
4673;DHT22;61885;53.560;9.940;2022-08-27T11:37:44;19.30;99.90
4673;DHT22;61885;53.560;9.940;2022-08-27T11:40:35;19.40;99.90
4673;DHT22;61885;53.560;9.940;2022-08-27T11:43:13;19.40;99.90
4673;DHT22;61885;53.560;9.940;2022-08-27T11:45:53;19.60;99.90
4673;DHT22;61885;53.560;9.940;2022-08-27T11:48:26;19.70;99.90
4673;DHT22;61885;53.560;9.940;2022-08-27T11:50:59;19.80;98.50
4673;DHT22;61885;53.560;9.940;2022-08-27T11:53:33;19.90;97.20
4673;DHT22;61885;53.560;9.940;2022-08-27T11:56:12;20.00;94.40
4673;DHT22;61885;53.560;9.940;2022-08-27T11:58:42;20.20;93.40
4673;DHT22;61885;53.560;9.940;2022-08-27T12:01:16;20.20;87.20
4673;DHT22;61885;53.560;9.940;2022-08-27T12:03:59;20.10;83.70
4673;DHT22;61885;53.560;9.940;2022-08-27T12:06:41;20.20;84.20
4673;DHT22;61885;53.560;9.940;2022-08-27T12:09:19;20.40;78.30
4673;DHT22;61885;53.560;9.940;2022-08-27T12:11:57;20.50;72.40
4673;DHT22;61885;53.560;9.940;2022-08-27T12:14:38;20.60;70.90
4673;DHT22;61885;53.560;9.940;2022-08-27T12:17:20;20.70;65.30
4673;DHT22;61885;53.560;9.940;2022-08-27T12:20:02;20.90;65.00
4673;DHT22;61885;53.560;9.940;2022-08-27T12:22:56;20.80;70.40
4673;DHT22;61885;53.560;9.940;2022-08-27T12:25:54;21.10;73.70
4673;DHT22;61885;53.560;9.940;2022-08-27T12:28:24;21.20;51.50
4673;DHT22;61885;53.560;9.940;2022-08-27T12:30:56;21.20;52.30
4673;DHT22;61885;53.560;9.940;2022-08-27T12:33:32;21.20;49.50
4673;DHT22;61885;53.560;9.940;2022-08-27T12:36:07;21.10;51.20
4673;DHT22;61885;53.560;9.940;2022-08-27T12:38:43;21.20;58.30
4673;DHT22;61885;53.560;9.940;2022-08-27T12:41:27;21.40;45.70
4673;DHT22;61885;53.560;9.940;2022-08-27T12:44:02;21.30;42.40
4673;DHT22;61885;53.560;9.940;2022-08-27T12:46:36;21.40;43.40
4673;DHT22;61885;53.560;9.940;2022-08-27T12:49:09;21.60;44.30
4673;DHT22;61885;53.560;9.940;2022-08-27T12:51:40;21.80;45.40
4673;DHT22;61885;53.560;9.940;2022-08-27T12:54:25;22.00;44.00
4673;DHT22;61885;53.560;9.940;2022-08-27T12:57:03;22.30;38.40
4673;DHT22;61885;53.560;9.940;2022-08-27T12:59:45;22.60;27.50
4673;DHT22;61885;53.560;9.940;2022-08-27T13:02:39;22.70;30.60
4673;DHT22;61885;53.560;9.940;2022-08-27T13:05:17;22.80;25.20
4673;DHT22;61885;53.560;9.940;2022-08-27T13:07:50;22.70;20.60
4673;DHT22;61885;53.560;9.940;2022-08-27T13:10:23;22.70;21.90
4673;DHT22;61885;53.560;9.940;2022-08-27T13:13:04;22.80;24.80
4673;DHT22;61885;53.560;9.940;2022-08-27T13:15:41;23.30;19.50
4673;DHT22;61885;53.560;9.940;2022-08-27T13:18:10;23.10;15.20
4673;DHT22;61885;53.560;9.940;2022-08-27T13:20:41;23.50;14.80
4673;DHT22;61885;53.560;9.940;2022-08-27T13:23:15;23.50;8.10
4673;DHT22;61885;53.560;9.940;2022-08-27T13:25:54;23.30;11.40
4673;DHT22;61885;53.560;9.940;2022-08-27T13:28:29;23.30;11.20
4673;DHT22;61885;53.560;9.940;2022-08-27T13:31:00;23.40;8.40
4673;DHT22;61885;53.560;9.940;2022-08-27T13:33:33;23.30;8.40
4673;DHT22;61885;53.560;9.940;2022-08-27T13:36:04;23.60;7.00
4673;DHT22;61885;53.560;9.940;2022-08-27T13:38:38;24.00;7.30
4673;DHT22;61885;53.560;9.940;2022-08-27T13:41:10;24.20;3.20
4673;DHT22;61885;53.560;9.940;2022-08-27T13:43:49;24.10;1.10
4673;DHT22;61885;53.560;9.940;2022-08-27T13:46:23;23.90;1.20
4673;DHT22;61885;53.560;9.940;2022-08-27T13:48:57;23.50;3.60
4673;DHT22;61885;53.560;9.940;2022-08-27T13:51:30;23.60;7.00
4673;DHT22;61885;53.560;9.940;2022-08-27T13:54:05;23.80;3.80
4673;DHT22;61885;53.560;9.940;2022-08-27T13:56:42;24.00;3.20
4673;DHT22;61885;53.560;9.940;2022-08-27T13:59:27;24.00;1.00
4673;DHT22;61885;53.560;9.940;2022-08-27T14:01:59;24.50;1.00
4673;DHT22;61885;53.560;9.940;2022-08-27T14:04:36;24.80;1.00
4673;DHT22;61885;53.560;9.940;2022-08-27T14:07:09;24.80;1.00
4673;DHT22;61885;53.560;9.940;2022-08-27T14:09:45;24.40;1.00
4673;DHT22;61885;53.560;9.940;2022-08-27T14:12:23;24.50;1.00
4673;DHT22;61885;53.560;9.940;2022-08-27T14:14:57;24.90;1.00
4673;DHT22;61885;53.560;9.940;2022-08-27T14:17:35;24.70;1.00
4673;DHT22;61885;53.560;9.940;2022-08-27T14:20:06;24.90;1.00
4673;DHT22;61885;53.560;9.940;2022-08-27T14:22:36;25.00;1.00
4673;DHT22;61885;53.560;9.940;2022-08-27T14:25:06;25.00;1.00
4673;DHT22;61885;53.560;9.940;2022-08-27T14:27:38;24.90;1.00
4673;DHT22;61885;53.560;9.940;2022-08-27T14:30:13;24.80;1.00
4673;DHT22;61885;53.560;9.940;2022-08-27T14:32:44;25.00;1.00
4673;DHT22;61885;53.560;9.940;2022-08-27T14:35:15;24.70;1.00
4673;DHT22;61885;53.560;9.940;2022-08-27T14:37:45;24.90;1.00
4673;DHT22;61885;53.560;9.940;2022-08-27T14:40:16;25.20;1.00
4673;DHT22;61885;53.560;9.940;2022-08-27T14:42:45;25.20;1.00
4673;DHT22;61885;53.560;9.940;2022-08-27T14:45:17;24.50;1.00
4673;DHT22;61885;53.560;9.940;2022-08-27T14:47:48;25.20;1.00
4673;DHT22;61885;53.560;9.940;2022-08-27T14:50:19;25.70;1.00
4673;DHT22;61885;53.560;9.940;2022-08-27T14:52:49;26.10;1.00
4673;DHT22;61885;53.560;9.940;2022-08-27T14:55:18;26.70;1.00
4673;DHT22;61885;53.560;9.940;2022-08-27T14:57:48;26.50;1.00
4673;DHT22;61885;53.560;9.940;2022-08-27T15:00:20;26.30;1.00
4673;DHT22;61885;53.560;9.940;2022-08-27T15:02:50;26.40;1.00
4673;DHT22;61885;53.560;9.940;2022-08-27T15:05:20;25.80;1.00
4673;DHT22;61885;53.560;9.940;2022-08-27T15:07:50;26.40;1.00
4673;DHT22;61885;53.560;9.940;2022-08-27T15:10:23;26.60;1.00
4673;DHT22;61885;53.560;9.940;2022-08-27T15:12:53;26.90;1.00
4673;DHT22;61885;53.560;9.940;2022-08-27T15:15:26;27.60;1.00
4673;DHT22;61885;53.560;9.940;2022-08-27T15:17:56;27.60;1.00
4673;DHT22;61885;53.560;9.940;2022-08-27T15:20:25;27.10;1.00
4673;DHT22;61885;53.560;9.940;2022-08-27T15:22:55;27.20;1.00
4673;DHT22;61885;53.560;9.940;2022-08-27T15:25:25;27.90;1.00
4673;DHT22;61885;53.560;9.940;2022-08-27T15:27:56;28.30;1.00
4673;DHT22;61885;53.560;9.940;2022-08-27T15:30:29;28.40;1.00
4673;DHT22;61885;53.560;9.940;2022-08-27T15:32:59;28.30;1.00
4673;DHT22;61885;53.560;9.940;2022-08-27T15:35:28;28.00;1.00
4673;DHT22;61885;53.560;9.940;2022-08-27T15:37:58;27.70;1.00
4673;DHT22;61885;53.560;9.940;2022-08-27T15:40:30;27.60;1.00
4673;DHT22;61885;53.560;9.940;2022-08-27T15:43:04;28.20;1.00
4673;DHT22;61885;53.560;9.940;2022-08-27T15:45:37;28.70;1.00
4673;DHT22;61885;53.560;9.940;2022-08-27T15:48:08;28.00;1.00
4673;DHT22;61885;53.560;9.940;2022-08-27T15:50:39;28.10;1.00
4673;DHT22;61885;53.560;9.940;2022-08-27T15:53:11;27.40;1.00
4673;DHT22;61885;53.560;9.940;2022-08-27T15:55:42;27.20;1.00
4673;DHT22;61885;53.560;9.940;2022-08-27T15:58:13;27.40;1.00
4673;DHT22;61885;53.560;9.940;2022-08-27T16:00:47;27.70;1.00
4673;DHT22;61885;53.560;9.940;2022-08-27T16:03:17;28.10;1.00
4673;DHT22;61885;53.560;9.940;2022-08-27T16:05:47;28.10;1.00
4673;DHT22;61885;53.560;9.940;2022-08-27T16:08:19;27.60;1.00
4673;DHT22;61885;53.560;9.940;2022-08-27T16:10:50;27.30;1.00
4673;DHT22;61885;53.560;9.940;2022-08-27T16:13:19;27.20;1.00
4673;DHT22;61885;53.560;9.940;2022-08-27T16:15:53;27.60;1.00
4673;DHT22;61885;53.560;9.940;2022-08-27T16:18:26;28.40;1.00
4673;DHT22;61885;53.560;9.940;2022-08-27T16:20:59;28.20;1.00
4673;DHT22;61885;53.560;9.940;2022-08-27T16:23:30;28.20;1.00
4673;DHT22;61885;53.560;9.940;2022-08-27T16:26:00;28.50;1.00
4673;DHT22;61885;53.560;9.940;2022-08-27T16:28:30;28.40;1.00